Time;durP1;ratioP1;P1;durP2;ratioP2;P2;SDS_P1;SDS_P2;PMS_P1;PMS_P2;Temp;Humidity;BMP_temperature;BMP_pressure;BME280_temperature;BME280_humidity;BME280_pressure;Samples;Min_cycle;Max_cycle;Signal;HPM_P1;HPM_P2
2022/12/29 00:00:18;;;;;;;323.88;174.82;;;;;;;13.52;78.68;99287.22;4932611;29;20134;-67
2022/12/29 00:03:10;;;;;;;314.02;172.07;;;;;;;13.57;77.68;99278.50;4930739;29;20083;-66
2022/12/29 00:05:57;;;;;;;328.38;175.50;;;;;;;13.46;77.81;99277.34;4941146;29;20052;-68
2022/12/29 00:08:46;;;;;;;323.43;173.03;;;;;;;13.38;78.25;99259.56;4937945;29;20051;-66
2022/12/29 00:11:28;;;;;;;320.88;171.02;;;;;;;13.51;78.51;99266.72;4949970;29;20294;-66
2022/12/29 00:17:18;;;;;;;306.98;167.70;;;;;;;13.64;78.08;99273.88;4942577;29;20075;-65
2022/12/29 00:35:53;;;;;;;315.00;168.00;;;;;;;12.80;80.71;99351.25;4949922;29;20432;-65
2022/12/29 00:44:54;;;;;;;325.77;170.80;;;;;;;13.68;78.09;99327.16;4939110;29;20154;-68
2022/12/29 00:47:36;;;;;;;325.40;175.05;;;;;;;13.50;77.80;99319.00;4929122;29;20539;-65
2022/12/29 00:50:25;;;;;;;346.83;182.13;;;;;;;13.35;78.39;99305.81;4913195;29;20474;-66
2022/12/29 00:53:07;;;;;;;338.73;176.45;;;;;;;13.79;77.04;99295.94;4916919;29;20047;-65
2022/12/29 00:55:57;;;;;;;344.13;177.07;;;;;;;13.88;76.70;99281.13;4897624;28;20763;-65
2022/12/29 00:58:47;;;;;;;326.88;169.35;;;;;;;13.52;77.02;99288.06;4911284;29;20076;-66
2022/12/29 01:01:36;;;;;;;315.73;172.57;;;;;;;13.25;78.20;99313.53;4900546;29;20055;-67
2022/12/29 01:04:23;;;;;;;317.75;172.50;;;;;;;13.05;79.27;99327.94;4912155;29;20047;-65
2022/12/29 01:07:14;;;;;;;345.17;175.43;;;;;;;12.83;80.17;99326.59;4929681;29;20063;-65
2022/12/29 01:10:14;;;;;;;337.10;181.40;;;;;;;13.06;79.90;99323.38;4911171;29;20131;-65
2022/12/29 01:12:59;;;;;;;348.73;179.80;;;;;;;13.19;79.19;99309.81;4907524;29;20146;-65
2022/12/29 01:15:59;;;;;;;357.48;181.10;;;;;;;13.31;79.15;99316.19;4928818;29;20138;-66
2022/12/29 01:18:35;;;;;;;359.90;185.80;;;;;;;13.64;78.06;99312.47;4910745;29;20044;-65
2022/12/29 01:21:24;;;;;;;356.83;189.23;;;;;;;13.53;77.40;99307.78;4909003;29;20110;-65
2022/12/29 01:24:06;;;;;;;356.92;188.73;;;;;;;13.35;77.71;99303.13;4930091;29;20308;-65
2022/12/29 01:27:01;;;;;;;356.83;183.75;;;;;;;13.49;78.78;99304.69;4912574;29;20060;-66
2022/12/29 01:29:36;;;;;;;356.05;189.77;;;;;;;13.60;77.61;99292.34;4929478;29;20055;-65
2022/12/29 01:32:32;;;;;;;359.75;190.38;;;;;;;13.44;78.00;99301.81;4911966;29;20059;-66
2022/12/29 01:35:08;;;;;;;368.80;191.77;;;;;;;13.45;78.50;99294.53;4929430;29;20048;-65
2022/12/29 01:38:05;;;;;;;366.63;190.60;;;;;;;13.70;78.36;99294.59;4895300;29;20384;-66
2022/12/29 01:40:46;;;;;;;363.50;193.77;;;;;;;13.62;77.14;99292.13;4906083;29;20062;-65
2022/12/29 01:43:43;;;;;;;342.75;184.80;;;;;;;13.54;78.13;99300.50;4909833;29;20052;-65
2022/12/29 01:46:42;;;;;;;351.30;187.75;;;;;;;13.77;78.10;99300.72;4924723;29;20338;-65
2022/12/29 01:49:37;;;;;;;;;;;;;;;13.78;77.42;99290.78;4912603;29;20063;-65
2022/12/29 01:52:13;;;;;;;342.00;179.80;;;;;;;13.93;76.66;99287.72;4914202;29;19926;-66
2022/12/29 01:55:04;;;;;;;361.98;190.23;;;;;;;13.78;76.88;99294.28;4917360;29;20047;-65
2022/12/29 01:58:03;;;;;;;342.55;183.23;;;;;;;13.79;78.05;99304.03;4930027;28;20055;-67
2022/12/29 02:00:39;;;;;;;339.48;183.95;;;;;;;13.66;77.38;99293.34;4948146;29;20055;-66
2022/12/29 02:03:31;;;;;;;362.95;189.50;;;;;;;13.51;77.75;99294.50;4927990;29;20380;-66
2022/12/29 02:06:30;;;;;;;357.25;187.98;;;;;;;13.43;78.46;99302.03;4946603;29;20067;-66
2022/12/29 02:09:19;;;;;;;349.67;185.82;;;;;;;13.31;79.00;99316.19;4947535;29;20113;-66
2022/12/29 02:12:01;;;;;;;354.35;185.50;;;;;;;13.40;79.29;99311.38;4926979;29;20047;-66
2022/12/29 02:15:02;;;;;;;356.15;191.65;;;;;;;13.49;79.12;99299.28;4924215;29;20122;-66
2022/12/29 02:17:57;;;;;;;358.40;186.55;;;;;;;13.41;79.27;99310.34;4911838;29;20448;-66
2022/12/29 02:21:24;;;;;;;382.75;197.82;;;;;;;13.50;78.73;99300.94;4908559;29;20657;-66
2022/12/29 02:24:34;;;;;;;366.45;189.18;;;;;;;13.32;79.25;99312.47;4938793;29;20059;-66
2022/12/29 02:27:50;;;;;;;362.50;190.90;;;;;;;13.26;80.13;99332.19;4943311;29;20051;-66
2022/12/29 02:31:12;;;;;;;359.83;192.23;;;;;;;13.17;80.40;99327.25;4914024;29;20059;-67
2022/12/29 02:34:21;;;;;;;368.33;194.85;;;;;;;13.56;80.42;99342.38;4914340;29;20052;-68
2022/12/29 02:37:14;;;;;;;372.90;195.68;;;;;;;13.42;79.53;99341.66;4932928;29;20074;-67
2022/12/29 02:40:12;;;;;;;382.77;204.35;;;;;;;13.59;79.00;99341.97;4930899;29;20058;-66
2022/12/29 02:43:04;;;;;;;;;;;;;;;13.80;78.87;99343.47;4928042;29;20085;-65
2022/12/29 02:46:32;;;;;;;369.48;193.80;;;;;;;14.03;77.92;99347.44;4927101;29;19926;-66
2022/12/29 02:49:43;;;;;;;373.85;198.98;;;;;;;14.07;77.54;99333.25;4932447;29;20118;-66
2022/12/29 02:52:32;;;;;;;401.40;207.45;;;;;;;14.25;77.72;99337.03;4921953;29;20056;-66
2022/12/29 02:55:21;;;;;;;376.17;202.55;;;;;;;14.14;77.30;99343.16;4932397;29;20183;-65
2022/12/29 02:58:09;;;;;;;366.83;198.63;;;;;;;14.04;77.47;99344.53;4912579;28;20054;-66
2022/12/29 03:01:26;;;;;;;374.50;204.20;;;;;;;13.86;78.08;99347.16;4924339;29;20039;-66
2022/12/29 03:04:41;;;;;;;387.65;205.40;;;;;;;13.93;78.80;99342.53;4923528;29;20357;-67
2022/12/29 03:08:05;;;;;;;402.88;210.98;;;;;;;14.08;78.01;99351.13;4925889;29;20134;-68
2022/12/29 03:12:07;;;;;;;399.50;210.15;;;;;;;14.24;77.74;99363.22;4881072;29;20484;-66
2022/12/29 03:17:58;;;;;;;407.88;207.35;;;;;;;14.56;76.73;99382.03;4932172;29;20660;-68
2022/12/29 03:21:01;;;;;;;385.05;207.82;;;;;;;14.52;76.32;99391.63;4926385;29;20047;-66
2022/12/29 03:23:47;;;;;;;380.08;204.98;;;;;;;14.84;76.21;99403.16;4940980;29;20138;-66
2022/12/29 03:26:36;;;;;;;395.00;212.60;;;;;;;14.73;75.61;99419.28;4941183;29;20043;-66
2022/12/29 03:29:31;;;;;;;394.00;208.13;;;;;;;14.58;76.37;99415.09;4946341;29;20047;-66
2022/12/29 03:32:23;;;;;;;376.73;207.93;;;;;;;14.54;76.98;99419.25;4923355;29;20043;-65
2022/12/29 03:35:09;;;;;;;399.48;210.35;;;;;;;14.68;76.32;99439.69;4925044;29;20081;-66
2022/12/29 03:38:11;;;;;;;397.08;219.93;;;;;;;14.46;77.60;99455.47;4924298;29;20055;-65
2022/12/29 03:40:58;;;;;;;426.65;225.27;;;;;;;14.78;76.57;99454.56;4932090;29;20054;-67
2022/12/29 03:43:47;;;;;;;422.17;226.60;;;;;;;14.94;76.68;99448.59;4930207;29;20055;-67
2022/12/29 03:46:29;;;;;;;426.63;227.35;;;;;;;14.87;76.09;99445.94;4932135;29;20790;-67
2022/12/29 03:49:18;;;;;;;421.73;221.88;;;;;;;15.04;76.83;99446.19;4918023;29;20054;-67
2022/12/29 03:52:00;;;;;;;438.85;232.20;;;;;;;15.01;76.97;99443.09;4933005;29;20065;-67
2022/12/29 03:54:51;;;;;;;429.52;232.60;;;;;;;15.04;77.65;99446.19;4919998;29;20157;-68
2022/12/29 03:57:33;;;;;;;436.02;236.02;;;;;;;15.30;76.49;99455.03;4931462;28;20051;-67
2022/12/29 04:00:28;;;;;;;446.67;236.65;;;;;;;15.32;77.41;99455.63;4928620;29;20058;-68
2022/12/29 04:03:10;;;;;;;450.60;246.82;;;;;;;15.51;76.75;99452.91;4922014;29;20051;-68
2022/12/29 04:05:59;;;;;;;454.30;242.65;;;;;;;15.50;76.71;99453.97;4914603;29;20111;-67
2022/12/29 04:09:01;;;;;;;438.27;241.90;;;;;;;15.48;77.53;99456.91;4923189;29;20118;-68
2022/12/29 04:11:52;;;;;;;452.95;246.38;;;;;;;15.83;76.54;99467.06;4940643;29;20067;-68
2022/12/29 04:14:34;;;;;;;446.65;245.30;;;;;;;15.77;76.43;99452.59;4922236;29;20102;-69
2022/12/29 04:17:24;;;;;;;458.83;250.48;;;;;;;15.61;76.13;99451.31;4922596;29;20047;-69
2022/12/29 04:23:38;;;;;;;464.00;250.48;;;;;;;15.67;77.81;99444.16;4944526;29;20134;-67
2022/12/29 04:26:14;;;;;;;460.80;253.95;;;;;;;15.80;77.16;99465.66;4946603;28;20055;-67
2022/12/29 04:29:18;;;;;;;462.98;255.65;;;;;;;15.99;77.36;99462.88;4921772;29;20047;-68
2022/12/29 04:32:25;;;;;;;470.38;256.98;;;;;;;16.18;76.99;99469.06;4922910;29;20047;-68
2022/12/29 04:35:15;;;;;;;463.63;260.23;;;;;;;16.53;75.64;99484.56;4916426;29;20047;-68
2022/12/29 04:38:06;;;;;;;463.17;256.73;;;;;;;16.53;75.40;99488.09;4930529;29;20171;-68
2022/12/29 04:40:57;;;;;;;464.38;261.85;;;;;;;16.36;74.73;99485.25;4927565;29;20638;-68
2022/12/29 04:43:46;;;;;;;451.83;256.10;;;;;;;16.74;73.28;99481.28;4933874;29;20060;-68
2022/12/29 04:46:31;;;;;;;440.35;249.52;;;;;;;17.01;72.67;99476.22;4933120;29;20062;-67
2022/12/29 04:49:45;;;;;;;461.38;254.32;;;;;;;16.93;72.27;99487.44;4931678;29;20050;-67
2022/12/29 04:52:42;;;;;;;445.15;241.27;;;;;;;16.91;70.64;99476.00;4944947;29;20454;-67
2022/12/29 04:55:38;;;;;;;427.27;234.73;;;;;;;16.96;71.01;99464.44;4922984;29;20043;-68
2022/12/29 04:58:20;;;;;;;420.15;224.70;;;;;;;17.22;71.36;99466.63;4931266;28;20043;-67
2022/12/29 05:01:09;;;;;;;399.92;219.80;;;;;;;17.33;70.53;99453.28;4920103;29;20102;-66
2022/12/29 05:03:52;;;;;;;379.10;204.82;;;;;;;17.28;67.68;99445.88;4945280;29;20040;-66
2022/12/29 05:06:42;;;;;;;376.17;204.57;;;;;;;17.29;67.17;99433.97;4925483;29;20641;-62
2022/12/29 05:09:38;;;;;;;360.05;199.15;;;;;;;17.49;69.00;99430.00;4921474;29;20470;-66
2022/12/29 05:12:14;;;;;;;362.10;198.90;;;;;;;17.79;68.67;99422.44;4930425;29;20102;-65
2022/12/29 05:15:15;;;;;;;365.27;191.88;;;;;;;17.62;65.43;99416.13;4920139;29;20504;-66
2022/12/29 05:17:52;;;;;;;331.45;185.32;;;;;;;18.04;63.81;99415.84;4927251;29;20055;-66
2022/12/29 05:20:48;;;;;;;334.13;185.07;;;;;;;18.32;64.97;99411.38;4922549;29;20062;-65
2022/12/29 05:23:24;;;;;;;326.92;183.93;;;;;;;18.49;64.46;99409.47;4926291;29;20067;-67
2022/12/29 05:26:21;;;;;;;328.38;181.00;;;;;;;18.44;64.58;99401.25;4922366;29;20051;-67
2022/12/29 05:29:33;;;;;;;324.88;181.70;;;;;;;18.49;64.95;99403.22;4936040;29;20615;-67
2022/12/29 05:32:15;;;;;;;314.83;178.10;;;;;;;18.23;63.30;99410.13;4922448;29;20055;-65
2022/12/29 05:35:04;;;;;;;317.08;171.38;;;;;;;18.27;64.40;99423.00;4920619;29;20820;-65
2022/12/29 05:37:54;;;;;;;320.27;175.77;;;;;;;18.39;65.36;99422.91;4918877;29;20052;-65
2022/12/29 05:40:37;;;;;;;324.92;180.65;;;;;;;18.53;63.49;99410.63;4911398;29;20051;-62
2022/12/29 05:43:46;;;;;;;326.25;176.48;;;;;;;18.53;65.90;99410.63;4916763;29;20486;-62
2022/12/29 05:46:47;;;;;;;323.77;180.38;;;;;;;18.47;66.97;99410.78;4924637;29;20065;-63
2022/12/29 05:49:53;;;;;;;320.55;180.43;;;;;;;18.38;68.57;99419.38;4947884;28;20194;-64
2022/12/29 05:53:00;;;;;;;328.35;185.00;;;;;;;18.38;69.74;99416.66;4938061;29;20070;-62
2022/12/29 05:55:44;;;;;;;322.65;181.00;;;;;;;18.51;67.20;99410.03;4920542;29;20052;-63
2022/12/29 05:58:39;;;;;;;309.70;176.88;;;;;;;18.45;69.68;99397.44;4931992;28;20040;-63
2022/12/29 06:01:29;;;;;;;311.00;179.50;;;;;;;18.45;69.52;99402.88;4926444;29;20047;-61
2022/12/29 06:04:19;;;;;;;313.65;175.38;;;;;;;18.38;70.15;99422.09;4934347;29;20051;-64
2022/12/29 06:07:02;;;;;;;318.77;175.85;;;;;;;18.29;70.22;99423.56;4904214;29;20050;-61
2022/12/29 06:09:53;;;;;;;306.67;167.77;;;;;;;18.40;65.04;99432.72;4924880;29;20046;-64
2022/12/29 06:12:39;;;;;;;289.13;163.57;;;;;;;18.37;67.68;99436.75;4920065;29;20058;-66
2022/12/29 06:15:29;;;;;;;303.85;167.50;;;;;;;18.23;69.26;99459.03;4920924;29;20058;-65
2022/12/29 06:18:14;;;;;;;294.27;164.60;;;;;;;18.18;67.07;99467.94;4911790;29;20059;-64
2022/12/29 06:21:11;;;;;;;289.15;160.88;;;;;;;18.16;64.22;99487.19;4908634;29;20544;-64
2022/12/29 06:24:00;;;;;;;302.15;156.55;;;;;;;18.11;64.45;99508.81;4936337;29;20147;-64
2022/12/29 06:26:43;;;;;;;297.33;166.05;;;;;;;18.05;63.25;99495.41;4907296;29;20055;-64
2022/12/29 06:29:40;;;;;;;289.70;154.73;;;;;;;18.15;62.39;99490.16;4938347;29;20128;-65
2022/12/29 06:32:15;;;;;;;249.32;138.80;;;;;;;18.06;60.50;99481.59;4919490;29;20043;-65
2022/12/29 06:35:11;;;;;;;253.10;127.93;;;;;;;18.18;60.55;99479.63;4919081;29;20153;-64
2022/12/29 06:38:00;;;;;;;239.02;130.13;;;;;;;18.13;62.82;99487.69;4924388;29;20345;-67
2022/12/29 06:40:44;;;;;;;237.75;130.38;;;;;;;18.25;63.03;99494.94;4936811;29;20067;-67
2022/12/29 06:43:59;;;;;;;236.70;124.85;;;;;;;18.24;63.25;99493.31;4941423;29;20071;-67
2022/12/29 06:47:00;;;;;;;243.50;130.55;;;;;;;18.19;65.05;99477.75;4935721;29;20055;-63
2022/12/29 06:49:49;;;;;;;239.25;127.45;;;;;;;18.04;63.77;99477.44;4937900;29;20051;-63
2022/12/29 06:52:32;;;;;;;240.95;125.25;;;;;;;18.23;63.81;99475.34;4942018;29;20099;-63
2022/12/29 06:55:22;;;;;;;251.77;128.15;;;;;;;18.33;64.40;99478.25;4939498;29;20106;-64
2022/12/29 06:58:17;;;;;;;244.00;131.57;;;;;;;18.24;66.01;99474.28;4935186;29;20133;-64
2022/12/29 07:00:52;;;;;;;255.18;139.63;;;;;;;18.18;67.64;99467.94;4931671;29;20047;-68
2022/12/29 07:03:43;;;;;;;264.08;140.85;;;;;;;18.02;68.70;99469.56;4935300;29;20067;-69
2022/12/29 07:06:25;;;;;;;254.25;139.35;;;;;;;17.92;69.67;99474.81;4932014;29;20378;-64
2022/12/29 07:09:14;;;;;;;265.17;139.50;;;;;;;17.86;70.83;99478.50;4936889;29;20589;-59
2022/12/29 07:11:57;;;;;;;266.60;144.07;;;;;;;17.64;71.65;99489.19;4930748;29;20068;-61
2022/12/29 07:14:46;;;;;;;256.73;139.63;;;;;;;17.60;72.61;99494.28;4937087;29;20506;-61
2022/12/29 07:17:35;;;;;;;276.25;144.27;;;;;;;17.52;72.31;99487.34;4936157;29;20081;-61
2022/12/29 07:20:17;;;;;;;265.75;144.60;;;;;;;17.46;72.75;99487.44;4937259;29;20082;-61
2022/12/29 07:23:07;;;;;;;274.23;147.52;;;;;;;17.44;72.72;99473.31;4938260;29;20044;-61
2022/12/29 07:25:50;;;;;;;285.90;149.32;;;;;;;17.47;73.25;99467.41;4938723;29;20133;-61
2022/12/29 07:28:41;;;;;;;292.88;154.18;;;;;;;17.45;72.04;99455.97;4928314;29;20472;-63
2022/12/29 07:31:24;;;;;;;289.27;157.05;;;;;;;17.41;73.13;99444.78;4941014;29;20054;-62
2022/12/29 07:34:15;;;;;;;286.13;155.90;;;;;;;17.45;74.07;99435.09;4925716;29;20060;-60
2022/12/29 07:37:04;;;;;;;302.00;159.13;;;;;;;17.47;75.23;99434.84;4934112;29;20063;-62
2022/12/29 07:39:53;;;;;;;318.95;173.50;;;;;;;17.21;74.79;99432.44;4928131;29;20055;-61
2022/12/29 07:42:35;;;;;;;342.52;187.98;;;;;;;17.27;75.31;99416.25;4935937;29;20058;-60
2022/12/29 07:45:33;;;;;;;376.23;206.93;;;;;;;16.93;74.86;99403.38;4923278;29;20446;-61
2022/12/29 07:48:15;;;;;;;387.88;212.63;;;;;;;17.27;74.77;99389.94;4937846;29;20062;-60
2022/12/29 07:51:04;;;;;;;401.20;218.32;;;;;;;17.26;75.35;99388.31;4943105;29;20043;-60
2022/12/29 07:53:47;;;;;;;427.95;238.80;;;;;;;16.93;76.56;99403.38;4938185;29;20065;-60
2022/12/29 07:56:36;;;;;;;466.38;265.05;;;;;;;16.99;76.74;99417.88;4940667;29;20039;-60
2022/12/29 07:59:18;;;;;;;479.80;280.65;;;;;;;16.24;79.13;99403.97;4943546;29;20194;-61
2022/12/29 08:02:07;;;;;;;480.90;274.90;;;;;;;16.20;78.61;99388.41;4936591;29;20122;-60
2022/12/29 08:04:49;;;;;;;482.00;277.85;;;;;;;16.54;77.92;99388.66;4950124;29;20062;-59
2022/12/29 08:07:38;;;;;;;484.25;275.35;;;;;;;16.67;77.72;99382.19;4949221;29;20031;-61
2022/12/29 08:10:20;;;;;;;482.17;274.85;;;;;;;16.69;77.42;99382.75;4933423;29;20118;-60
2022/12/29 08:13:09;;;;;;;494.95;276.90;;;;;;;16.81;77.57;99370.00;4945733;29;20062;-62
2022/12/29 08:15:51;;;;;;;498.33;283.65;;;;;;;16.63;77.94;99352.81;4949681;29;20063;-60
2022/12/29 08:18:40;;;;;;;481.17;276.63;;;;;;;16.58;78.03;99346.47;4935350;29;20055;-62
2022/12/29 08:21:22;;;;;;;483.25;275.00;;;;;;;16.84;77.67;99361.44;4918916;29;20479;-61
2022/12/29 08:24:13;;;;;;;481.85;273.00;;;;;;;16.95;77.76;99351.63;4936456;29;20040;-61
2022/12/29 08:26:54;;;;;;;;;;;;;;;16.46;77.72;99349.19;4937046;29;20143;-62
2022/12/29 08:29:56;;;;;;;453.73;254.95;;;;;;;16.83;77.87;99332.66;4933353;29;20311;-61
2022/12/29 08:32:38;;;;;;;452.27;248.82;;;;;;;16.77;76.47;99330.88;4937147;29;20448;-61
2022/12/29 08:35:27;;;;;;;442.33;246.70;;;;;;;17.19;76.22;99336.09;4938392;29;20130;-59
2022/12/29 08:38:22;;;;;;;434.20;243.00;;;;;;;17.23;74.25;99337.25;4940298;29;20110;-60
2022/12/29 08:41:00;;;;;;;432.90;231.90;;;;;;;17.28;74.21;99337.34;4939748;29;20110;-60
2022/12/29 08:43:50;;;;;;;409.73;221.60;;;;;;;17.31;73.67;99331.44;4929005;29;20518;-62
2022/12/29 08:46:32;;;;;;;408.15;223.90;;;;;;;17.36;74.48;99309.81;4938779;29;20047;-60
2022/12/29 08:49:27;;;;;;;401.17;219.23;;;;;;;17.33;74.29;99325.75;4942784;29;20043;-61
2022/12/29 08:52:03;;;;;;;403.50;218.30;;;;;;;17.49;73.58;99314.13;4949570;29;20058;-63
2022/12/29 08:54:58;;;;;;;393.05;219.90;;;;;;;17.51;74.40;99303.03;4946115;29;20051;-61
2022/12/29 08:57:48;;;;;;;384.38;210.13;;;;;;;17.28;72.65;99307.50;4936720;29;20130;-60
2022/12/29 09:00:37;;;;;;;366.33;203.88;;;;;;;17.50;73.46;99309.50;4936434;29;20138;-61
2022/12/29 09:03:19;;;;;;;360.52;200.70;;;;;;;17.52;73.29;99307.38;4922637;29;20048;-61
2022/12/29 09:06:35;;;;;;;362.60;197.63;;;;;;;17.43;73.37;99304.25;4937631;29;20415;-61
2022/12/29 09:09:15;;;;;;;370.45;201.10;;;;;;;17.39;73.73;99308.53;4934599;29;20098;-61
2022/12/29 09:12:10;;;;;;;358.05;200.90;;;;;;;17.43;73.66;99315.13;4939737;29;20059;-60
2022/12/29 09:14:48;;;;;;;367.77;199.48;;;;;;;17.22;74.53;99303.06;4937216;29;20048;-61
2022/12/29 09:17:43;;;;;;;359.95;199.80;;;;;;;16.97;74.65;99282.53;4923217;29;20050;-60
2022/12/29 09:20:20;;;;;;;367.15;204.30;;;;;;;16.76;75.75;99288.59;4943294;29;20770;-61
2022/12/29 09:23:15;;;;;;;358.40;201.48;;;;;;;16.92;76.48;99303.31;4939899;29;20076;-62
2022/12/29 09:25:51;;;;;;;373.80;209.50;;;;;;;16.91;76.13;99304.34;4942117;29;20087;-60
2022/12/29 09:28:40;;;;;;;375.20;208.77;;;;;;;16.77;76.85;99290.22;4945070;29;20363;-61
2022/12/29 09:31:22;;;;;;;372.15;208.88;;;;;;;16.90;76.95;99279.13;4936029;29;20123;-61
2022/12/29 09:34:17;;;;;;;371.10;205.07;;;;;;;16.83;76.18;99273.03;4927251;29;20051;-61
2022/12/29 09:36:52;;;;;;;369.77;205.98;;;;;;;16.94;76.19;99285.72;4945155;29;20109;-61
2022/12/29 09:39:47;;;;;;;370.75;207.55;;;;;;;17.03;75.68;99291.59;4925657;29;20397;-60
2022/12/29 09:42:41;;;;;;;380.75;208.85;;;;;;;17.06;75.87;99298.41;4927000;29;20043;-62
2022/12/29 09:45:51;;;;;;;368.20;200.80;;;;;;;17.05;75.93;99292.16;4937205;29;20061;-61
2022/12/29 09:48:35;;;;;;;367.42;198.07;;;;;;;17.03;75.05;99272.59;4936737;29;20051;-60
2022/12/29 09:51:33;;;;;;;355.70;197.23;;;;;;;16.94;76.06;99269.44;4929622;29;20055;-62
2022/12/29 09:54:29;;;;;;;355.95;194.18;;;;;;;16.71;77.28;99253.25;4941313;29;20142;-60
2022/12/29 09:57:26;;;;;;;338.58;188.48;;;;;;;16.56;77.69;99264.59;4936018;29;20048;-60
2022/12/29 10:00:14;;;;;;;333.65;185.43;;;;;;;16.63;77.55;99274.25;4944665;29;20063;-61
2022/12/29 10:03:13;;;;;;;348.42;187.65;;;;;;;16.62;76.38;99250.09;4929994;29;20055;-60
2022/12/29 10:06:02;;;;;;;331.40;178.88;;;;;;;16.23;77.39;99244.41;4940850;29;20047;-60
2022/12/29 10:09:21;;;;;;;299.13;165.02;;;;;;;16.33;77.85;99235.69;4931466;29;20051;-61
2022/12/29 10:12:22;;;;;;;314.95;172.52;;;;;;;16.31;77.84;99232.38;4930862;29;20511;-62
2022/12/29 10:15:44;;;;;;;302.48;163.27;;;;;;;16.01;79.14;99227.94;4933770;29;20122;-60
2022/12/29 10:18:54;;;;;;;287.45;156.77;;;;;;;16.17;78.72;99229.94;4935498;29;20316;-60
2022/12/29 10:21:53;;;;;;;271.05;146.40;;;;;;;15.98;77.43;99223.84;4931807;29;20051;-61
2022/12/29 10:24:50;;;;;;;256.45;138.63;;;;;;;16.17;77.48;99238.06;4916093;29;20055;-61
2022/12/29 10:27:25;;;;;;;249.18;136.05;;;;;;;16.15;76.72;99240.19;4932262;29;20055;-62
2022/12/29 10:30:23;;;;;;;248.05;132.70;;;;;;;16.34;76.28;99231.91;4933728;29;20051;-61
2022/12/29 10:33:06;;;;;;;246.80;132.30;;;;;;;16.34;76.05;99227.31;4932754;29;20134;-60
2022/12/29 10:35:55;;;;;;;237.60;131.85;;;;;;;16.40;76.78;99239.91;4937298;29;20051;-60
2022/12/29 10:38:47;;;;;;;235.32;129.60;;;;;;;16.34;75.94;99240.03;4930790;29;20058;-61
2022/12/29 10:41:52;;;;;;;222.25;122.88;;;;;;;16.39;74.49;99240.13;4930329;29;20159;-60
2022/12/29 10:44:31;;;;;;;216.13;118.55;;;;;;;16.28;74.40;99260.78;4940505;29;20375;-60
2022/12/29 10:47:25;;;;;;;201.88;110.60;;;;;;;16.20;72.62;99264.69;4925168;29;20051;-60
2022/12/29 10:50:08;;;;;;;184.23;104.30;;;;;;;15.94;72.12;99221.84;4940450;29;20062;-60
2022/12/29 10:53:09;;;;;;;164.48;90.82;;;;;;;16.00;72.03;99167.56;4935031;29;20064;-60
2022/12/29 10:55:46;;;;;;;160.38;87.85;;;;;;;16.27;72.85;99196.00;4937281;29;20043;-60
2022/12/29 10:58:42;;;;;;;158.98;89.10;;;;;;;16.09;74.25;99205.09;4934774;29;20121;-60
2022/12/29 11:01:52;;;;;;;155.77;89.80;;;;;;;16.15;74.92;99186.03;4927913;29;20044;-60
2022/12/29 11:04:34;;;;;;;168.80;92.53;;;;;;;16.05;75.23;99185.81;4912296;29;20110;-60
2022/12/29 11:07:30;;;;;;;162.55;89.53;;;;;;;15.84;77.12;99169.13;4934653;29;20527;-61
2022/12/29 11:10:20;;;;;;;168.70;95.00;;;;;;;15.82;75.21;99171.25;4932450;29;20157;-60
2022/12/29 11:13:33;;;;;;;171.25;93.32;;;;;;;15.59;77.22;99177.47;4936843;29;20047;-61
2022/12/29 11:16:13;;;;;;;170.85;93.55;;;;;;;15.59;78.06;99171.22;4936580;29;20447;-59
2022/12/29 11:19:09;;;;;;;177.52;97.35;;;;;;;15.78;76.75;99158.41;4912546;29;20122;-59
2022/12/29 11:21:44;;;;;;;173.10;98.50;;;;;;;15.92;76.11;99164.44;4918773;29;20843;-60
2022/12/29 11:24:51;;;;;;;171.75;96.47;;;;;;;15.97;76.50;99161.81;4937734;28;20055;-60
2022/12/29 11:27:26;;;;;;;174.95;98.35;;;;;;;15.98;77.42;99169.69;4938724;29;20141;-61
2022/12/29 11:30:34;;;;;;;176.07;98.75;;;;;;;15.83;78.05;99172.06;4935207;29;20110;-61
2022/12/29 11:33:24;;;;;;;175.95;96.05;;;;;;;15.95;78.40;99174.75;4939587;29;20150;-62
2022/12/29 11:36:08;;;;;;;179.70;100.15;;;;;;;15.99;78.00;99184.88;4939758;29;20061;-61
2022/12/29 11:39:01;;;;;;;176.02;97.78;;;;;;;16.02;78.05;99191.69;4941872;29;20494;-61
2022/12/29 11:41:52;;;;;;;183.25;99.47;;;;;;;15.98;77.79;99179.72;4936002;29;20050;-62
2022/12/29 11:44:48;;;;;;;181.85;98.97;;;;;;;15.94;77.85;99173.94;4935336;29;20149;-61
2022/12/29 11:47:31;;;;;;;174.82;99.90;;;;;;;15.85;78.26;99170.75;4941316;29;20052;-63
2022/12/29 11:50:37;;;;;;;176.70;100.15;;;;;;;15.62;79.15;99176.97;4934023;29;20058;-60
2022/12/29 11:53:31;;;;;;;186.60;102.55;;;;;;;15.91;78.04;99173.59;4938791;29;20134;-61
2022/12/29 11:56:29;;;;;;;182.75;105.75;;;;;;;15.91;78.12;99181.72;4939737;29;20039;-62
2022/12/29 11:59:43;;;;;;;186.25;107.90;;;;;;;15.94;79.00;99179.34;4935000;29;20490;-59
2022/12/29 12:02:48;;;;;;;191.63;106.43;;;;;;;15.81;78.17;99190.44;4597081;29;10000596;-60
2022/12/29 12:05:57;;;;;;;188.88;107.65;;;;;;;16.04;77.66;99195.00;4936734;29;20491;-60
2022/12/29 12:08:48;;;;;;;195.80;108.18;;;;;;;15.99;77.47;99192.16;4937852;29;20055;-64
2022/12/29 12:11:43;;;;;;;191.02;107.38;;;;;;;15.82;76.19;99192.91;4941056;29;20065;-60
2022/12/29 12:14:54;;;;;;;186.38;100.68;;;;;;;15.93;76.83;99203.94;4947319;29;20169;-61
2022/12/29 12:18:15;;;;;;;182.70;101.63;;;;;;;15.98;76.95;99204.06;4921326;29;20075;-60
2022/12/29 12:21:00;;;;;;;;;;;;;;;16.06;77.17;99209.13;4938813;29;20129;-61
2022/12/29 12:24:15;;;;;;;175.00;99.03;;;;;;;15.98;76.76;99207.59;4928431;29;19937;-59
2022/12/29 12:27:14;;;;;;;169.65;96.03;;;;;;;15.85;76.32;99214.06;4939217;29;20047;-61
2022/12/29 12:30:16;;;;;;;166.20;97.18;;;;;;;16.00;75.97;99215.47;4942609;29;20062;-61
2022/12/29 12:33:03;;;;;;;164.90;96.50;;;;;;;16.04;75.74;99213.94;4943434;29;20055;-61
2022/12/29 12:36:17;;;;;;;166.65;93.75;;;;;;;15.95;76.03;99207.25;4946912;29;20507;-61
2022/12/29 12:39:29;;;;;;;171.82;96.90;;;;;;;16.02;76.11;99213.34;4937451;29;20044;-60
2022/12/29 12:42:26;;;;;;;176.68;101.70;;;;;;;15.99;77.15;99216.53;4940346;29;20110;-62
2022/12/29 12:45:40;;;;;;;200.02;113.22;;;;;;;15.89;76.74;99227.94;4941245;29;20142;-61
2022/12/29 12:48:48;;;;;;;190.77;112.63;;;;;;;16.01;75.89;99227.94;4942309;29;20061;-62
2022/12/29 12:52:14;;;;;;;176.40;101.82;;;;;;;15.92;75.57;99226.69;4930609;29;20044;-62
2022/12/29 12:55:25;;;;;;;173.75;100.35;;;;;;;16.03;75.87;99231.22;4928878;29;20155;-62
2022/12/29 12:58:35;;;;;;;178.85;101.38;;;;;;;15.96;76.80;99235.97;4925686;29;20047;-60
2022/12/29 13:01:24;;;;;;;172.35;99.22;;;;;;;16.00;76.25;99237.97;4912880;29;20035;-65
2022/12/29 13:04:39;;;;;;;164.95;96.53;;;;;;;15.87;77.44;99256.31;4940472;29;20048;-62
2022/12/29 13:07:35;;;;;;;175.32;102.55;;;;;;;16.08;75.69;99266.56;4946994;29;20109;-60
2022/12/29 13:10:42;;;;;;;175.68;96.63;;;;;;;16.10;76.21;99280.69;4935946;28;20055;-61
2022/12/29 13:13:58;;;;;;;167.27;96.15;;;;;;;16.11;76.23;99276.06;4937227;29;20055;-62
2022/12/29 13:17:20;;;;;;;174.68;101.00;;;;;;;16.01;76.54;99285.63;4937939;29;20441;-65
2022/12/29 13:20:20;;;;;;;155.30;91.72;;;;;;;15.98;73.60;99302.34;4936356;29;20673;-63
2022/12/29 13:23:12;;;;;;;158.05;92.40;;;;;;;16.14;72.77;99314.34;4921466;29;20110;-63
2022/12/29 13:26:12;;;;;;;161.30;92.85;;;;;;;16.20;73.68;99308.00;4937702;29;20051;-63
2022/12/29 13:29:40;;;;;;;169.65;96.78;;;;;;;16.12;73.92;99311.03;4938173;29;20125;-62
2022/12/29 13:32:56;;;;;;;205.38;111.93;;;;;;;16.24;73.29;99325.44;4920974;29;20877;-62